You are not logged in, Click here to log in
新加坡樟宜機場SIN / WSSS 新加坡樟宜
ICAO: WSSS Country: 新加坡樟宜
Latitude: 1.36442 Longitude: 103.992
Total Arrivals: 98 Total Departures: 95
Latest Arrival: CX635 (VHHH-WSSS)Allen. Lee Latest Departure: 3K201 (WSSS-WIII)CHU. CHUHAO
Scenery:
METAR : WSSS 031730Z 15006KT 9999 FEW016 BKN150 28/25 Q1008 NOSIG

新加坡樟宜機場SIN

You are accessing this site from IP address 34.200.243.114. Virtual Airline. CMS by phpVMS.Website designed by Zumeweb and edited by Theo Bearman.
There is 0 User(s) Online: | and 10 Guest(s) Online.
All information on this site is for fight simulation purposes only. This site is for flight logging for pilots of Virtual Airline&模擬飛行論壇 FlySim only.